sensor_id;sensor_type;location;lat;lon;timestamp;P1;durP1;ratioP1;P2;durP2;ratioP2
7454;SDS011;3769;51.208;4.454;2024-01-30T00:03:00;15;;;13.7;;
7454;SDS011;3769;51.208;4.454;2024-01-30T00:08:00;14.4;;;13.2;;
7454;SDS011;3769;51.208;4.454;2024-01-30T00:13:00;14.9;;;13.6;;
7454;SDS011;3769;51.208;4.454;2024-01-30T00:18:00;15.1;;;13.8;;
7454;SDS011;3769;51.208;4.454;2024-01-30T00:23:00;14.8;;;13.5;;
7454;SDS011;3769;51.208;4.454;2024-01-30T00:28:00;15.3;;;13.9;;
7454;SDS011;3769;51.208;4.454;2024-01-30T00:33:00;14.6;;;13.3;;
7454;SDS011;3769;51.208;4.454;2024-01-30T00:38:00;15.8;;;14.3;;
7454;SDS011;3769;51.208;4.454;2024-01-30T00:43:00;15.8;;;14.3;;
7454;SDS011;3769;51.208;4.454;2024-01-30T00:48:00;14.4;;;13;;
7454;SDS011;3769;51.208;4.454;2024-01-30T00:53:00;14.1;;;12.9;;
7454;SDS011;3769;51.208;4.454;2024-01-30T00:58:00;14;;;12.9;;
7454;SDS011;3769;51.208;4.454;2024-01-30T01:03:00;13.8;;;12.6;;
7454;SDS011;3769;51.208;4.454;2024-01-30T01:08:00;13.8;;;12.5;;
7454;SDS011;3769;51.208;4.454;2024-01-30T01:13:00;14.1;;;12.8;;
7454;SDS011;3769;51.208;4.454;2024-01-30T01:18:00;14;;;12.8;;
7454;SDS011;3769;51.208;4.454;2024-01-30T01:23:00;13.7;;;12.5;;
7454;SDS011;3769;51.208;4.454;2024-01-30T01:28:00;15;;;13.5;;
7454;SDS011;3769;51.208;4.454;2024-01-30T01:33:00;14;;;12.8;;
7454;SDS011;3769;51.208;4.454;2024-01-30T01:38:00;14;;;12.7;;
7454;SDS011;3769;51.208;4.454;2024-01-30T01:43:02;14.5;;;13.3;;
7454;SDS011;3769;51.208;4.454;2024-01-30T01:48:00;14.5;;;13.2;;
7454;SDS011;3769;51.208;4.454;2024-01-30T01:53:00;14;;;12.8;;
7454;SDS011;3769;51.208;4.454;2024-01-30T01:58:00;14.7;;;13.5;;
7454;SDS011;3769;51.208;4.454;2024-01-30T02:03:00;14.2;;;13;;
7454;SDS011;3769;51.208;4.454;2024-01-30T02:08:00;14.6;;;13.3;;
7454;SDS011;3769;51.208;4.454;2024-01-30T02:13:00;14.8;;;13.4;;
7454;SDS011;3769;51.208;4.454;2024-01-30T02:18:00;14.4;;;13.2;;
7454;SDS011;3769;51.208;4.454;2024-01-30T02:23:00;15;;;13.6;;
7454;SDS011;3769;51.208;4.454;2024-01-30T02:28:00;15.6;;;13.8;;
7454;SDS011;3769;51.208;4.454;2024-01-30T02:33:00;14.4;;;12.9;;
7454;SDS011;3769;51.208;4.454;2024-01-30T02:38:00;15.2;;;13.8;;
7454;SDS011;3769;51.208;4.454;2024-01-30T02:43:01;15.3;;;13.9;;
7454;SDS011;3769;51.208;4.454;2024-01-30T02:48:00;17;;;13.5;;
7454;SDS011;3769;51.208;4.454;2024-01-30T02:53:00;14.7;;;13.3;;
7454;SDS011;3769;51.208;4.454;2024-01-30T02:58:00;14.6;;;13.4;;
7454;SDS011;3769;51.208;4.454;2024-01-30T03:03:00;14.9;;;13.5;;
7454;SDS011;3769;51.208;4.454;2024-01-30T03:08:00;14.3;;;12.9;;
7454;SDS011;3769;51.208;4.454;2024-01-30T03:13:00;14.9;;;13.4;;
7454;SDS011;3769;51.208;4.454;2024-01-30T03:18:00;15.1;;;13.8;;
7454;SDS011;3769;51.208;4.454;2024-01-30T03:23:00;15.2;;;13.6;;
7454;SDS011;3769;51.208;4.454;2024-01-30T03:28:00;14.8;;;13.5;;
7454;SDS011;3769;51.208;4.454;2024-01-30T03:33:00;15.2;;;13.7;;
7454;SDS011;3769;51.208;4.454;2024-01-30T03:38:00;15.3;;;13.8;;
7454;SDS011;3769;51.208;4.454;2024-01-30T03:43:00;14.2;;;13;;
7454;SDS011;3769;51.208;4.454;2024-01-30T03:48:00;14.1;;;12.7;;
7454;SDS011;3769;51.208;4.454;2024-01-30T03:53:00;15;;;13.4;;
7454;SDS011;3769;51.208;4.454;2024-01-30T03:58:00;15.6;;;14.1;;
7454;SDS011;3769;51.208;4.454;2024-01-30T04:03:00;14.1;;;12.8;;
7454;SDS011;3769;51.208;4.454;2024-01-30T04:08:00;14.7;;;13.4;;
7454;SDS011;3769;51.208;4.454;2024-01-30T04:13:00;14.3;;;12.9;;
7454;SDS011;3769;51.208;4.454;2024-01-30T04:18:00;14.9;;;13.6;;
7454;SDS011;3769;51.208;4.454;2024-01-30T04:23:00;14.9;;;13.4;;
7454;SDS011;3769;51.208;4.454;2024-01-30T04:28:00;13.9;;;12.7;;
7454;SDS011;3769;51.208;4.454;2024-01-30T04:33:00;14.6;;;13.3;;
7454;SDS011;3769;51.208;4.454;2024-01-30T04:38:00;14.4;;;13;;
7454;SDS011;3769;51.208;4.454;2024-01-30T04:43:00;14.7;;;13.3;;
7454;SDS011;3769;51.208;4.454;2024-01-30T04:48:00;14.6;;;13.3;;
7454;SDS011;3769;51.208;4.454;2024-01-30T04:53:00;14.5;;;13.1;;
7454;SDS011;3769;51.208;4.454;2024-01-30T04:58:00;14.7;;;13.2;;
7454;SDS011;3769;51.208;4.454;2024-01-30T05:03:00;14.6;;;13.1;;
7454;SDS011;3769;51.208;4.454;2024-01-30T05:08:00;13.5;;;12.3;;
7454;SDS011;3769;51.208;4.454;2024-01-30T05:13:00;15.4;;;13.7;;
7454;SDS011;3769;51.208;4.454;2024-01-30T05:18:00;14.9;;;13.5;;
7454;SDS011;3769;51.208;4.454;2024-01-30T05:23:00;14.7;;;13.2;;
7454;SDS011;3769;51.208;4.454;2024-01-30T05:28:00;15.1;;;13.5;;
7454;SDS011;3769;51.208;4.454;2024-01-30T05:33:00;14.7;;;13.4;;
7454;SDS011;3769;51.208;4.454;2024-01-30T05:38:00;14.1;;;13;;
7454;SDS011;3769;51.208;4.454;2024-01-30T05:43:00;14.4;;;13.1;;
7454;SDS011;3769;51.208;4.454;2024-01-30T05:48:00;15.1;;;13.5;;
7454;SDS011;3769;51.208;4.454;2024-01-30T05:53:00;15.4;;;13.9;;
7454;SDS011;3769;51.208;4.454;2024-01-30T05:58:00;17.4;;;14.5;;
7454;SDS011;3769;51.208;4.454;2024-01-30T06:03:00;14.8;;;13.2;;
7454;SDS011;3769;51.208;4.454;2024-01-30T06:08:01;15.8;;;13.6;;
7454;SDS011;3769;51.208;4.454;2024-01-30T06:13:00;14.6;;;13.3;;
7454;SDS011;3769;51.208;4.454;2024-01-30T06:18:00;15.2;;;13.7;;
7454;SDS011;3769;51.208;4.454;2024-01-30T06:23:00;14.4;;;12.9;;
7454;SDS011;3769;51.208;4.454;2024-01-30T06:28:00;15;;;13.4;;
7454;SDS011;3769;51.208;4.454;2024-01-30T06:33:00;14.7;;;13.3;;
7454;SDS011;3769;51.208;4.454;2024-01-30T06:38:00;15.8;;;13.9;;
7454;SDS011;3769;51.208;4.454;2024-01-30T06:43:00;14.3;;;13;;
7454;SDS011;3769;51.208;4.454;2024-01-30T06:48:00;15.3;;;13.7;;
7454;SDS011;3769;51.208;4.454;2024-01-30T06:53:00;15.1;;;13.6;;
7454;SDS011;3769;51.208;4.454;2024-01-30T06:58:00;15.4;;;13.8;;
7454;SDS011;3769;51.208;4.454;2024-01-30T07:03:00;15.3;;;13.8;;
7454;SDS011;3769;51.208;4.454;2024-01-30T07:08:00;16.6;;;14.3;;
7454;SDS011;3769;51.208;4.454;2024-01-30T07:13:00;18;;;14.4;;
7454;SDS011;3769;51.208;4.454;2024-01-30T07:18:00;16.9;;;14.5;;
7454;SDS011;3769;51.208;4.454;2024-01-30T07:23:00;17.4;;;14.7;;
7454;SDS011;3769;51.208;4.454;2024-01-30T07:28:00;15.4;;;13.7;;
7454;SDS011;3769;51.208;4.454;2024-01-30T07:33:00;15.2;;;13.7;;
7454;SDS011;3769;51.208;4.454;2024-01-30T07:38:00;17.3;;;14.1;;
7454;SDS011;3769;51.208;4.454;2024-01-30T07:43:00;17.4;;;14.6;;
7454;SDS011;3769;51.208;4.454;2024-01-30T07:48:00;16.5;;;14.3;;
7454;SDS011;3769;51.208;4.454;2024-01-30T07:53:00;15.3;;;13.6;;
7454;SDS011;3769;51.208;4.454;2024-01-30T07:58:00;16;;;14;;
7454;SDS011;3769;51.208;4.454;2024-01-30T08:03:00;15.7;;;13.9;;
7454;SDS011;3769;51.208;4.454;2024-01-30T08:08:00;16.2;;;13.6;;
7454;SDS011;3769;51.208;4.454;2024-01-30T08:13:00;15.3;;;13.9;;
7454;SDS011;3769;51.208;4.454;2024-01-30T08:18:00;15.6;;;14;;
7454;SDS011;3769;51.208;4.454;2024-01-30T08:23:00;17.8;;;14.5;;
7454;SDS011;3769;51.208;4.454;2024-01-30T08:28:00;16.8;;;15.1;;
7454;SDS011;3769;51.208;4.454;2024-01-30T08:33:00;16;;;14;;
7454;SDS011;3769;51.208;4.454;2024-01-30T08:38:00;16.7;;;14.2;;
7454;SDS011;3769;51.208;4.454;2024-01-30T08:43:00;15.3;;;13.7;;
7454;SDS011;3769;51.208;4.454;2024-01-30T08:48:00;16.7;;;14;;
7454;SDS011;3769;51.208;4.454;2024-01-30T08:53:00;15.2;;;13.6;;
7454;SDS011;3769;51.208;4.454;2024-01-30T08:58:00;15.6;;;14;;
7454;SDS011;3769;51.208;4.454;2024-01-30T09:03:00;15.1;;;13.6;;
7454;SDS011;3769;51.208;4.454;2024-01-30T09:08:00;15.7;;;14.4;;
7454;SDS011;3769;51.208;4.454;2024-01-30T09:13:00;14.6;;;13;;
7454;SDS011;3769;51.208;4.454;2024-01-30T09:18:00;14.8;;;13.4;;
7454;SDS011;3769;51.208;4.454;2024-01-30T09:23:00;15.7;;;14.1;;
7454;SDS011;3769;51.208;4.454;2024-01-30T09:28:00;14.9;;;13.6;;
7454;SDS011;3769;51.208;4.454;2024-01-30T09:33:00;15.1;;;13.7;;
7454;SDS011;3769;51.208;4.454;2024-01-30T09:38:00;16.3;;;14.7;;
7454;SDS011;3769;51.208;4.454;2024-01-30T09:43:00;20.5;;;15;;
7454;SDS011;3769;51.208;4.454;2024-01-30T09:48:00;16.5;;;14.8;;
7454;SDS011;3769;51.208;4.454;2024-01-30T09:53:00;18.8;;;14.8;;
7454;SDS011;3769;51.208;4.454;2024-01-30T09:58:00;16.9;;;15.1;;
7454;SDS011;3769;51.208;4.454;2024-01-30T10:03:00;17.3;;;15.6;;
7454;SDS011;3769;51.208;4.454;2024-01-30T10:08:00;17.4;;;14.9;;
7454;SDS011;3769;51.208;4.454;2024-01-30T10:13:00;18.7;;;15.9;;
7454;SDS011;3769;51.208;4.454;2024-01-30T10:18:00;17.3;;;14.7;;
7454;SDS011;3769;51.208;4.454;2024-01-30T10:23:00;16;;;14.4;;
7454;SDS011;3769;51.208;4.454;2024-01-30T10:28:00;17.7;;;14.4;;
7454;SDS011;3769;51.208;4.454;2024-01-30T10:33:00;16.4;;;14.3;;
7454;SDS011;3769;51.208;4.454;2024-01-30T10:38:00;13.5;;;12.3;;
7454;SDS011;3769;51.208;4.454;2024-01-30T10:43:00;12.3;;;11.3;;
7454;SDS011;3769;51.208;4.454;2024-01-30T10:48:00;12.4;;;11.2;;
7454;SDS011;3769;51.208;4.454;2024-01-30T10:53:00;11.3;;;10.5;;
7454;SDS011;3769;51.208;4.454;2024-01-30T10:58:00;12.2;;;11.2;;
7454;SDS011;3769;51.208;4.454;2024-01-30T11:03:00;11.3;;;10.5;;
7454;SDS011;3769;51.208;4.454;2024-01-30T11:08:10;11.2;;;10.3;;
7454;SDS011;3769;51.208;4.454;2024-01-30T11:13:09;11.1;;;10.3;;
7454;SDS011;3769;51.208;4.454;2024-01-30T11:18:00;11;;;10.2;;
7454;SDS011;3769;51.208;4.454;2024-01-30T11:23:00;11;;;10.1;;
7454;SDS011;3769;51.208;4.454;2024-01-30T11:28:00;10.7;;;9.9;;
7454;SDS011;3769;51.208;4.454;2024-01-30T11:33:02;10.2;;;9.5;;
7454;SDS011;3769;51.208;4.454;2024-01-30T11:38:00;11.5;;;10.6;;
7454;SDS011;3769;51.208;4.454;2024-01-30T11:43:01;11.4;;;10.7;;
7454;SDS011;3769;51.208;4.454;2024-01-30T11:48:00;10.3;;;9.7;;
7454;SDS011;3769;51.208;4.454;2024-01-30T11:53:00;35.4;;;32.9;;
7454;SDS011;3769;51.208;4.454;2024-01-30T11:58:00;11.9;;;10.9;;
7454;SDS011;3769;51.208;4.454;2024-01-30T12:03:00;12.4;;;11.2;;
7454;SDS011;3769;51.208;4.454;2024-01-30T12:08:00;11.2;;;10.2;;
7454;SDS011;3769;51.208;4.454;2024-01-30T12:13:00;11.4;;;10.4;;
7454;SDS011;3769;51.208;4.454;2024-01-30T12:18:04;11.4;;;10.5;;
7454;SDS011;3769;51.208;4.454;2024-01-30T12:23:00;11.4;;;10.7;;
7454;SDS011;3769;51.208;4.454;2024-01-30T12:28:00;11.1;;;10.3;;
7454;SDS011;3769;51.208;4.454;2024-01-30T12:33:00;11;;;10.2;;
7454;SDS011;3769;51.208;4.454;2024-01-30T12:38:00;11.3;;;10.5;;
7454;SDS011;3769;51.208;4.454;2024-01-30T12:43:00;11.6;;;10.8;;
7454;SDS011;3769;51.208;4.454;2024-01-30T12:48:00;11.4;;;10.5;;
7454;SDS011;3769;51.208;4.454;2024-01-30T12:53:00;11.2;;;10.3;;
7454;SDS011;3769;51.208;4.454;2024-01-30T12:58:00;11.6;;;10.8;;
7454;SDS011;3769;51.208;4.454;2024-01-30T13:03:00;10.6;;;10;;
7454;SDS011;3769;51.208;4.454;2024-01-30T13:08:00;11.5;;;10.8;;
7454;SDS011;3769;51.208;4.454;2024-01-30T13:13:00;11.7;;;10.7;;
7454;SDS011;3769;51.208;4.454;2024-01-30T13:18:00;11.6;;;10.7;;
7454;SDS011;3769;51.208;4.454;2024-01-30T13:23:00;11.8;;;10.8;;
7454;SDS011;3769;51.208;4.454;2024-01-30T13:28:00;12.6;;;11.6;;
7454;SDS011;3769;51.208;4.454;2024-01-30T13:33:00;12;;;11;;
7454;SDS011;3769;51.208;4.454;2024-01-30T13:38:00;17.1;;;15.9;;
7454;SDS011;3769;51.208;4.454;2024-01-30T13:43:00;16;;;14.7;;
7454;SDS011;3769;51.208;4.454;2024-01-30T13:48:00;17.8;;;16.2;;
7454;SDS011;3769;51.208;4.454;2024-01-30T13:53:01;17.3;;;16.1;;
7454;SDS011;3769;51.208;4.454;2024-01-30T13:58:00;15.3;;;14.2;;
7454;SDS011;3769;51.208;4.454;2024-01-30T14:03:00;16.1;;;15;;
7454;SDS011;3769;51.208;4.454;2024-01-30T14:08:00;16.2;;;15.1;;
7454;SDS011;3769;51.208;4.454;2024-01-30T14:13:00;15.5;;;14.5;;
7454;SDS011;3769;51.208;4.454;2024-01-30T14:18:00;17.6;;;16.5;;
7454;SDS011;3769;51.208;4.454;2024-01-30T14:23:00;16.2;;;14.9;;
7454;SDS011;3769;51.208;4.454;2024-01-30T14:28:00;16.6;;;15.4;;
7454;SDS011;3769;51.208;4.454;2024-01-30T14:33:00;12.6;;;11.6;;
7454;SDS011;3769;51.208;4.454;2024-01-30T14:38:00;15.1;;;14;;
7454;SDS011;3769;51.208;4.454;2024-01-30T14:43:00;15.1;;;13.9;;
7454;SDS011;3769;51.208;4.454;2024-01-30T14:48:00;14.6;;;13.7;;
7454;SDS011;3769;51.208;4.454;2024-01-30T14:53:00;15.8;;;14.7;;
7454;SDS011;3769;51.208;4.454;2024-01-30T14:58:00;15;;;13.8;;
7454;SDS011;3769;51.208;4.454;2024-01-30T15:03:00;15.4;;;14;;
7454;SDS011;3769;51.208;4.454;2024-01-30T15:08:00;15.5;;;14.2;;
7454;SDS011;3769;51.208;4.454;2024-01-30T15:13:00;16.1;;;14.9;;
7454;SDS011;3769;51.208;4.454;2024-01-30T15:18:00;16.2;;;15.1;;
7454;SDS011;3769;51.208;4.454;2024-01-30T15:23:00;16.5;;;15.4;;
7454;SDS011;3769;51.208;4.454;2024-01-30T15:28:00;16.8;;;15.6;;
7454;SDS011;3769;51.208;4.454;2024-01-30T15:33:00;17.6;;;16.1;;
7454;SDS011;3769;51.208;4.454;2024-01-30T15:38:00;19.2;;;17.7;;
7454;SDS011;3769;51.208;4.454;2024-01-30T15:43:00;19.6;;;18.2;;
7454;SDS011;3769;51.208;4.454;2024-01-30T15:48:00;18.6;;;17.3;;
7454;SDS011;3769;51.208;4.454;2024-01-30T15:53:00;20.3;;;18.6;;
7454;SDS011;3769;51.208;4.454;2024-01-30T15:58:00;19.9;;;18.3;;
7454;SDS011;3769;51.208;4.454;2024-01-30T16:03:00;20.4;;;18.8;;
7454;SDS011;3769;51.208;4.454;2024-01-30T16:08:00;21;;;19.3;;
7454;SDS011;3769;51.208;4.454;2024-01-30T16:13:00;23.1;;;21.1;;
7454;SDS011;3769;51.208;4.454;2024-01-30T16:18:00;23.8;;;21.9;;
7454;SDS011;3769;51.208;4.454;2024-01-30T16:23:00;23.5;;;21.8;;
7454;SDS011;3769;51.208;4.454;2024-01-30T16:28:00;23;;;21.3;;
7454;SDS011;3769;51.208;4.454;2024-01-30T16:33:00;23.3;;;21.5;;
7454;SDS011;3769;51.208;4.454;2024-01-30T16:38:00;22.6;;;20.7;;
7454;SDS011;3769;51.208;4.454;2024-01-30T16:43:00;21.8;;;20.2;;
7454;SDS011;3769;51.208;4.454;2024-01-30T16:48:00;21.2;;;19.5;;
7454;SDS011;3769;51.208;4.454;2024-01-30T16:53:00;21.6;;;19.4;;
7454;SDS011;3769;51.208;4.454;2024-01-30T16:58:00;21.3;;;19.4;;
7454;SDS011;3769;51.208;4.454;2024-01-30T17:03:00;21.8;;;19.6;;
7454;SDS011;3769;51.208;4.454;2024-01-30T17:08:00;21.6;;;19.8;;
7454;SDS011;3769;51.208;4.454;2024-01-30T17:13:00;21.6;;;19.5;;
7454;SDS011;3769;51.208;4.454;2024-01-30T17:18:00;21.3;;;19.3;;
7454;SDS011;3769;51.208;4.454;2024-01-30T17:23:00;21.4;;;19.6;;
7454;SDS011;3769;51.208;4.454;2024-01-30T17:28:00;20.9;;;19.3;;
7454;SDS011;3769;51.208;4.454;2024-01-30T17:33:00;22.7;;;20.6;;
7454;SDS011;3769;51.208;4.454;2024-01-30T17:38:00;22.2;;;20.4;;
7454;SDS011;3769;51.208;4.454;2024-01-30T17:43:00;22.9;;;20.8;;
7454;SDS011;3769;51.208;4.454;2024-01-30T17:48:00;22.7;;;20.8;;
7454;SDS011;3769;51.208;4.454;2024-01-30T17:53:00;23.6;;;21.7;;
7454;SDS011;3769;51.208;4.454;2024-01-30T17:58:00;23.3;;;21.1;;
7454;SDS011;3769;51.208;4.454;2024-01-30T18:03:00;22.9;;;20.9;;
7454;SDS011;3769;51.208;4.454;2024-01-30T18:08:00;23.5;;;21.1;;
7454;SDS011;3769;51.208;4.454;2024-01-30T18:13:00;22.3;;;20.4;;
7454;SDS011;3769;51.208;4.454;2024-01-30T18:18:00;22.8;;;20.7;;
7454;SDS011;3769;51.208;4.454;2024-01-30T18:23:00;22;;;20.2;;
7454;SDS011;3769;51.208;4.454;2024-01-30T18:28:00;23.1;;;21.1;;
7454;SDS011;3769;51.208;4.454;2024-01-30T18:33:00;22.3;;;20.5;;
7454;SDS011;3769;51.208;4.454;2024-01-30T18:38:00;22.4;;;20.5;;
7454;SDS011;3769;51.208;4.454;2024-01-30T18:43:00;21.7;;;19.9;;
7454;SDS011;3769;51.208;4.454;2024-01-30T18:48:00;21.6;;;19.7;;
7454;SDS011;3769;51.208;4.454;2024-01-30T18:53:00;22.4;;;20.6;;
7454;SDS011;3769;51.208;4.454;2024-01-30T18:58:00;22.7;;;20.6;;
7454;SDS011;3769;51.208;4.454;2024-01-30T19:03:00;24.8;;;22.5;;
7454;SDS011;3769;51.208;4.454;2024-01-30T19:08:00;24.2;;;22.1;;
7454;SDS011;3769;51.208;4.454;2024-01-30T19:13:00;23;;;21.1;;
7454;SDS011;3769;51.208;4.454;2024-01-30T19:18:00;24.2;;;22.2;;
7454;SDS011;3769;51.208;4.454;2024-01-30T19:23:00;25;;;22.6;;
7454;SDS011;3769;51.208;4.454;2024-01-30T19:28:00;25.2;;;23.1;;
7454;SDS011;3769;51.208;4.454;2024-01-30T19:33:00;25.8;;;23.4;;
7454;SDS011;3769;51.208;4.454;2024-01-30T19:38:00;24.6;;;22.5;;
7454;SDS011;3769;51.208;4.454;2024-01-30T19:43:00;24.4;;;22.5;;
7454;SDS011;3769;51.208;4.454;2024-01-30T19:48:00;24.4;;;22.3;;
7454;SDS011;3769;51.208;4.454;2024-01-30T19:53:00;24.7;;;22.3;;
7454;SDS011;3769;51.208;4.454;2024-01-30T19:58:00;25.1;;;23;;
7454;SDS011;3769;51.208;4.454;2024-01-30T20:03:00;29;;;26.7;;
7454;SDS011;3769;51.208;4.454;2024-01-30T20:08:00;23.1;;;21.2;;
7454;SDS011;3769;51.208;4.454;2024-01-30T20:13:00;25.1;;;23;;
7454;SDS011;3769;51.208;4.454;2024-01-30T20:18:00;24.2;;;22;;
7454;SDS011;3769;51.208;4.454;2024-01-30T20:23:00;23.4;;;21.4;;
7454;SDS011;3769;51.208;4.454;2024-01-30T20:28:00;23.8;;;21.7;;
7454;SDS011;3769;51.208;4.454;2024-01-30T20:33:00;24.8;;;22.5;;
7454;SDS011;3769;51.208;4.454;2024-01-30T20:38:00;24.2;;;21.9;;
7454;SDS011;3769;51.208;4.454;2024-01-30T20:43:00;24.9;;;22.8;;
7454;SDS011;3769;51.208;4.454;2024-01-30T20:48:00;25.1;;;23;;
7454;SDS011;3769;51.208;4.454;2024-01-30T20:53:00;25.8;;;23.5;;
7454;SDS011;3769;51.208;4.454;2024-01-30T20:58:00;26.6;;;24.2;;
7454;SDS011;3769;51.208;4.454;2024-01-30T21:03:00;27.3;;;24.9;;
7454;SDS011;3769;51.208;4.454;2024-01-30T21:08:00;26.5;;;24.1;;
7454;SDS011;3769;51.208;4.454;2024-01-30T21:13:00;27.1;;;24.7;;
7454;SDS011;3769;51.208;4.454;2024-01-30T21:18:00;26;;;23.6;;
7454;SDS011;3769;51.208;4.454;2024-01-30T21:23:00;27.1;;;24.7;;
7454;SDS011;3769;51.208;4.454;2024-01-30T21:28:00;28.6;;;25.7;;
7454;SDS011;3769;51.208;4.454;2024-01-30T21:33:00;31.4;;;28.3;;
7454;SDS011;3769;51.208;4.454;2024-01-30T21:38:00;31.5;;;28.5;;
7454;SDS011;3769;51.208;4.454;2024-01-30T21:43:00;29.5;;;26.5;;
7454;SDS011;3769;51.208;4.454;2024-01-30T21:48:00;29;;;26;;
7454;SDS011;3769;51.208;4.454;2024-01-30T21:53:00;29.1;;;26.2;;
7454;SDS011;3769;51.208;4.454;2024-01-30T21:58:00;27.8;;;24.9;;
7454;SDS011;3769;51.208;4.454;2024-01-30T22:03:00;29.1;;;26.3;;
7454;SDS011;3769;51.208;4.454;2024-01-30T22:08:00;28.6;;;25.7;;
7454;SDS011;3769;51.208;4.454;2024-01-30T22:13:00;29;;;26.2;;
7454;SDS011;3769;51.208;4.454;2024-01-30T22:18:00;27.9;;;25.3;;
7454;SDS011;3769;51.208;4.454;2024-01-30T22:23:00;27.3;;;24.6;;
7454;SDS011;3769;51.208;4.454;2024-01-30T22:28:00;26.5;;;23.7;;
7454;SDS011;3769;51.208;4.454;2024-01-30T22:33:00;24;;;21.6;;
7454;SDS011;3769;51.208;4.454;2024-01-30T22:38:00;23;;;20.6;;
7454;SDS011;3769;51.208;4.454;2024-01-30T22:43:00;25.7;;;20.8;;
7454;SDS011;3769;51.208;4.454;2024-01-30T22:48:00;24.4;;;20.9;;
7454;SDS011;3769;51.208;4.454;2024-01-30T22:53:00;26.5;;;21.2;;
7454;SDS011;3769;51.208;4.454;2024-01-30T22:58:00;22.7;;;18.8;;
7454;SDS011;3769;51.208;4.454;2024-01-30T23:03:00;21.4;;;18.5;;
7454;SDS011;3769;51.208;4.454;2024-01-30T23:08:00;23.4;;;18.1;;
7454;SDS011;3769;51.208;4.454;2024-01-30T23:13:00;23.4;;;18.9;;
7454;SDS011;3769;51.208;4.454;2024-01-30T23:18:00;23.7;;;17.3;;
7454;SDS011;3769;51.208;4.454;2024-01-30T23:23:00;18.9;;;16.6;;
7454;SDS011;3769;51.208;4.454;2024-01-30T23:28:00;18.4;;;15.7;;
7454;SDS011;3769;51.208;4.454;2024-01-30T23:33:00;20.3;;;14.6;;
7454;SDS011;3769;51.208;4.454;2024-01-30T23:38:00;19.1;;;14.5;;
7454;SDS011;3769;51.208;4.454;2024-01-30T23:43:01;18.9;;;13.4;;
7454;SDS011;3769;51.208;4.454;2024-01-30T23:48:00;18.8;;;13.4;;
7454;SDS011;3769;51.208;4.454;2024-01-30T23:53:00;16.9;;;13;;
7454;SDS011;3769;51.208;4.454;2024-01-30T23:58:00;16.6;;;13.3;;
